sensor_id;sensor_type;location;lat;lon;timestamp;temperature;humidity
2767;DHT22;1391;46.742;11.636;2022-08-19T00:00:40;15.90;99.90
2767;DHT22;1391;46.742;11.636;2022-08-19T00:03:07;16.30;99.90
2767;DHT22;1391;46.742;11.636;2022-08-19T00:05:36;15.90;99.90
2767;DHT22;1391;46.742;11.636;2022-08-19T00:08:04;16.30;99.90
2767;DHT22;1391;46.742;11.636;2022-08-19T00:10:32;15.80;99.90
2767;DHT22;1391;46.742;11.636;2022-08-19T00:12:59;16.00;99.90
2767;DHT22;1391;46.742;11.636;2022-08-19T00:15:26;16.30;99.90
2767;DHT22;1391;46.742;11.636;2022-08-19T00:17:54;15.90;99.90
2767;DHT22;1391;46.742;11.636;2022-08-19T00:20:22;15.90;99.90
2767;DHT22;1391;46.742;11.636;2022-08-19T00:22:51;15.90;99.90
2767;DHT22;1391;46.742;11.636;2022-08-19T00:25:18;16.30;99.90
2767;DHT22;1391;46.742;11.636;2022-08-19T00:27:46;15.90;99.90
2767;DHT22;1391;46.742;11.636;2022-08-19T00:30:13;16.30;99.90
2767;DHT22;1391;46.742;11.636;2022-08-19T00:32:43;15.90;99.90
2767;DHT22;1391;46.742;11.636;2022-08-19T00:35:10;15.90;99.90
2767;DHT22;1391;46.742;11.636;2022-08-19T00:37:38;16.70;99.90
2767;DHT22;1391;46.742;11.636;2022-08-19T00:40:12;16.70;99.90
2767;DHT22;1391;46.742;11.636;2022-08-19T00:42:39;16.70;99.90
2767;DHT22;1391;46.742;11.636;2022-08-19T00:45:12;16.70;99.90
2767;DHT22;1391;46.742;11.636;2022-08-19T00:47:41;16.70;99.90
2767;DHT22;1391;46.742;11.636;2022-08-19T00:50:10;16.30;99.90
2767;DHT22;1391;46.742;11.636;2022-08-19T00:52:43;16.30;99.90
2767;DHT22;1391;46.742;11.636;2022-08-19T00:55:17;16.80;99.90
2767;DHT22;1391;46.742;11.636;2022-08-19T00:57:49;16.60;99.90
2767;DHT22;1391;46.742;11.636;2022-08-19T01:00:22;16.50;99.90
2767;DHT22;1391;46.742;11.636;2022-08-19T01:02:52;16.80;99.90
2767;DHT22;1391;46.742;11.636;2022-08-19T01:05:24;16.50;99.90
2767;DHT22;1391;46.742;11.636;2022-08-19T01:07:54;16.80;99.90
2767;DHT22;1391;46.742;11.636;2022-08-19T01:10:28;16.60;99.90
2767;DHT22;1391;46.742;11.636;2022-08-19T01:12:58;16.50;99.90
2767;DHT22;1391;46.742;11.636;2022-08-19T01:15:29;16.80;99.90
2767;DHT22;1391;46.742;11.636;2022-08-19T01:18:01;16.60;99.90
2767;DHT22;1391;46.742;11.636;2022-08-19T01:20:32;16.60;99.90
2767;DHT22;1391;46.742;11.636;2022-08-19T01:23:01;16.50;99.90
2767;DHT22;1391;46.742;11.636;2022-08-19T01:25:32;16.80;99.90
2767;DHT22;1391;46.742;11.636;2022-08-19T01:28:02;16.60;99.90
2767;DHT22;1391;46.742;11.636;2022-08-19T01:30:34;16.50;99.90
2767;DHT22;1391;46.742;11.636;2022-08-19T01:33:03;16.80;99.90
2767;DHT22;1391;46.742;11.636;2022-08-19T01:35:31;16.50;99.90
2767;DHT22;1391;46.742;11.636;2022-08-19T01:38:02;16.40;99.90
2767;DHT22;1391;46.742;11.636;2022-08-19T01:40:35;16.40;99.90
2767;DHT22;1391;46.742;11.636;2022-08-19T01:43:05;16.40;99.90
2767;DHT22;1391;46.742;11.636;2022-08-19T01:45:35;16.30;99.90
2767;DHT22;1391;46.742;11.636;2022-08-19T01:48:03;16.70;99.90
2767;DHT22;1391;46.742;11.636;2022-08-19T01:50:32;16.30;99.90
2767;DHT22;1391;46.742;11.636;2022-08-19T01:53:03;16.30;99.90
2767;DHT22;1391;46.742;11.636;2022-08-19T01:55:34;16.40;99.90
2767;DHT22;1391;46.742;11.636;2022-08-19T01:58:05;16.40;99.90
2767;DHT22;1391;46.742;11.636;2022-08-19T02:00:32;16.30;99.90
2767;DHT22;1391;46.742;11.636;2022-08-19T02:03:00;16.80;99.90
2767;DHT22;1391;46.742;11.636;2022-08-19T02:05:28;16.60;99.90
2767;DHT22;1391;46.742;11.636;2022-08-19T02:07:56;16.50;99.90
2767;DHT22;1391;46.742;11.636;2022-08-19T02:10:25;16.70;99.90
2767;DHT22;1391;46.742;11.636;2022-08-19T02:12:53;16.80;99.90
2767;DHT22;1391;46.742;11.636;2022-08-19T02:15:20;16.50;99.90
2767;DHT22;1391;46.742;11.636;2022-08-19T02:17:48;16.80;99.90
2767;DHT22;1391;46.742;11.636;2022-08-19T02:20:16;16.50;99.90
2767;DHT22;1391;46.742;11.636;2022-08-19T02:22:44;16.70;99.90
2767;DHT22;1391;46.742;11.636;2022-08-19T02:25:12;16.30;99.90
2767;DHT22;1391;46.742;11.636;2022-08-19T02:27:42;16.30;99.90
2767;DHT22;1391;46.742;11.636;2022-08-19T02:30:16;16.30;99.90
2767;DHT22;1391;46.742;11.636;2022-08-19T02:32:44;16.30;99.90
2767;DHT22;1391;46.742;11.636;2022-08-19T02:35:12;16.30;99.90
2767;DHT22;1391;46.742;11.636;2022-08-19T02:37:41;15.90;99.90
2767;DHT22;1391;46.742;11.636;2022-08-19T02:40:26;15.90;99.90
2767;DHT22;1391;46.742;11.636;2022-08-19T02:42:55;16.30;99.90
2767;DHT22;1391;46.742;11.636;2022-08-19T02:45:22;15.90;99.90
2767;DHT22;1391;46.742;11.636;2022-08-19T02:47:50;15.90;99.90
2767;DHT22;1391;46.742;11.636;2022-08-19T02:50:17;15.90;99.90
2767;DHT22;1391;46.742;11.636;2022-08-19T02:52:44;15.90;99.90
2767;DHT22;1391;46.742;11.636;2022-08-19T02:55:11;15.90;99.90
2767;DHT22;1391;46.742;11.636;2022-08-19T02:57:39;15.90;99.90
2767;DHT22;1391;46.742;11.636;2022-08-19T03:00:09;16.30;99.90
2767;DHT22;1391;46.742;11.636;2022-08-19T03:02:38;16.30;99.90
2767;DHT22;1391;46.742;11.636;2022-08-19T03:05:07;15.80;99.90
2767;DHT22;1391;46.742;11.636;2022-08-19T03:07:35;16.00;99.90
2767;DHT22;1391;46.742;11.636;2022-08-19T03:10:03;16.20;99.90
2767;DHT22;1391;46.742;11.636;2022-08-19T03:12:34;16.00;99.90
2767;DHT22;1391;46.742;11.636;2022-08-19T03:15:03;16.20;99.90
2767;DHT22;1391;46.742;11.636;2022-08-19T03:17:33;16.10;99.90
2767;DHT22;1391;46.742;11.636;2022-08-19T03:20:00;15.90;99.90
2767;DHT22;1391;46.742;11.636;2022-08-19T03:22:27;15.90;99.90
2767;DHT22;1391;46.742;11.636;2022-08-19T03:24:55;15.90;99.90
2767;DHT22;1391;46.742;11.636;2022-08-19T03:27:23;15.90;99.90
2767;DHT22;1391;46.742;11.636;2022-08-19T03:29:50;15.80;99.90
2767;DHT22;1391;46.742;11.636;2022-08-19T03:32:18;15.90;99.90
2767;DHT22;1391;46.742;11.636;2022-08-19T03:34:46;15.80;99.90
2767;DHT22;1391;46.742;11.636;2022-08-19T03:37:14;16.00;99.90
2767;DHT22;1391;46.742;11.636;2022-08-19T03:39:42;16.20;99.90
2767;DHT22;1391;46.742;11.636;2022-08-19T03:42:10;16.20;99.90
2767;DHT22;1391;46.742;11.636;2022-08-19T03:44:38;16.20;99.90
2767;DHT22;1391;46.742;11.636;2022-08-19T03:47:06;16.50;99.90
2767;DHT22;1391;46.742;11.636;2022-08-19T03:49:33;16.60;99.90
2767;DHT22;1391;46.742;11.636;2022-08-19T03:52:04;17.20;99.90
2767;DHT22;1391;46.742;11.636;2022-08-19T03:54:33;17.30;99.90
2767;DHT22;1391;46.742;11.636;2022-08-19T03:57:00;17.00;99.90
2767;DHT22;1391;46.742;11.636;2022-08-19T03:59:31;17.30;99.90
2767;DHT22;1391;46.742;11.636;2022-08-19T04:02:07;17.40;99.90
2767;DHT22;1391;46.742;11.636;2022-08-19T04:04:36;17.50;99.90
2767;DHT22;1391;46.742;11.636;2022-08-19T04:07:06;17.80;99.90
2767;DHT22;1391;46.742;11.636;2022-08-19T04:09:35;18.00;99.90
2767;DHT22;1391;46.742;11.636;2022-08-19T04:12:04;17.90;99.90
2767;DHT22;1391;46.742;11.636;2022-08-19T04:14:34;17.80;99.90
2767;DHT22;1391;46.742;11.636;2022-08-19T04:17:02;17.90;99.90
2767;DHT22;1391;46.742;11.636;2022-08-19T04:19:31;17.70;99.00
2767;DHT22;1391;46.742;11.636;2022-08-19T04:21:59;17.90;99.00
2767;DHT22;1391;46.742;11.636;2022-08-19T04:24:28;18.00;95.20
2767;DHT22;1391;46.742;11.636;2022-08-19T04:26:55;18.00;96.60
2767;DHT22;1391;46.742;11.636;2022-08-19T04:29:24;17.90;95.90
2767;DHT22;1391;46.742;11.636;2022-08-19T04:31:54;17.80;94.50
2767;DHT22;1391;46.742;11.636;2022-08-19T04:34:24;17.90;94.30
2767;DHT22;1391;46.742;11.636;2022-08-19T04:36:54;18.40;92.10
2767;DHT22;1391;46.742;11.636;2022-08-19T04:39:28;18.40;89.10
2767;DHT22;1391;46.742;11.636;2022-08-19T04:42:11;18.50;91.50
2767;DHT22;1391;46.742;11.636;2022-08-19T04:44:56;18.50;88.20
2767;DHT22;1391;46.742;11.636;2022-08-19T04:47:24;18.60;89.50
2767;DHT22;1391;46.742;11.636;2022-08-19T04:49:52;18.40;90.40
2767;DHT22;1391;46.742;11.636;2022-08-19T04:52:19;18.50;90.60
2767;DHT22;1391;46.742;11.636;2022-08-19T04:54:48;18.40;90.30
2767;DHT22;1391;46.742;11.636;2022-08-19T04:57:16;18.40;90.70
2767;DHT22;1391;46.742;11.636;2022-08-19T04:59:43;18.40;91.80
2767;DHT22;1391;46.742;11.636;2022-08-19T05:02:10;17.90;93.30
2767;DHT22;1391;46.742;11.636;2022-08-19T05:04:37;17.70;93.80
2767;DHT22;1391;46.742;11.636;2022-08-19T05:07:06;17.70;96.10
2767;DHT22;1391;46.742;11.636;2022-08-19T05:09:34;17.90;94.20
2767;DHT22;1391;46.742;11.636;2022-08-19T05:12:04;17.80;93.90
2767;DHT22;1391;46.742;11.636;2022-08-19T05:14:32;18.30;94.30
2767;DHT22;1391;46.742;11.636;2022-08-19T05:17:01;17.90;95.90
2767;DHT22;1391;46.742;11.636;2022-08-19T05:19:28;17.90;95.90
2767;DHT22;1391;46.742;11.636;2022-08-19T05:22:16;17.80;96.50
2767;DHT22;1391;46.742;11.636;2022-08-19T05:25:03;17.90;95.80
2767;DHT22;1391;46.742;11.636;2022-08-19T05:27:34;18.00;94.40
2767;DHT22;1391;46.742;11.636;2022-08-19T05:30:04;17.90;93.50
2767;DHT22;1391;46.742;11.636;2022-08-19T05:32:32;18.00;94.20
2767;DHT22;1391;46.742;11.636;2022-08-19T05:35:00;17.80;94.00
2767;DHT22;1391;46.742;11.636;2022-08-19T05:37:27;17.90;94.20
2767;DHT22;1391;46.742;11.636;2022-08-19T05:39:54;17.80;94.70
2767;DHT22;1391;46.742;11.636;2022-08-19T05:42:22;17.90;94.90
2767;DHT22;1391;46.742;11.636;2022-08-19T05:44:53;17.60;99.80
2767;DHT22;1391;46.742;11.636;2022-08-19T05:47:22;17.90;99.50
2767;DHT22;1391;46.742;11.636;2022-08-19T05:49:50;17.70;99.00
2767;DHT22;1391;46.742;11.636;2022-08-19T05:52:18;17.80;99.90
2767;DHT22;1391;46.742;11.636;2022-08-19T05:54:46;17.70;99.90
2767;DHT22;1391;46.742;11.636;2022-08-19T05:57:16;17.50;99.90
2767;DHT22;1391;46.742;11.636;2022-08-19T05:59:44;17.90;99.90
2767;DHT22;1391;46.742;11.636;2022-08-19T06:02:18;17.80;99.90
2767;DHT22;1391;46.742;11.636;2022-08-19T06:04:45;17.70;99.90
2767;DHT22;1391;46.742;11.636;2022-08-19T06:07:12;17.60;99.90
2767;DHT22;1391;46.742;11.636;2022-08-19T06:09:41;17.80;99.90
2767;DHT22;1391;46.742;11.636;2022-08-19T06:12:08;17.80;99.90
2767;DHT22;1391;46.742;11.636;2022-08-19T06:14:35;17.80;99.90
2767;DHT22;1391;46.742;11.636;2022-08-19T06:17:02;17.80;99.90
2767;DHT22;1391;46.742;11.636;2022-08-19T06:19:31;17.70;99.90
2767;DHT22;1391;46.742;11.636;2022-08-19T06:21:59;17.60;99.90
2767;DHT22;1391;46.742;11.636;2022-08-19T06:24:28;17.80;99.90
2767;DHT22;1391;46.742;11.636;2022-08-19T06:26:58;17.60;99.90
2767;DHT22;1391;46.742;11.636;2022-08-19T06:29:28;17.80;99.90
2767;DHT22;1391;46.742;11.636;2022-08-19T06:31:59;17.70;99.90
2767;DHT22;1391;46.742;11.636;2022-08-19T06:34:31;17.90;99.90
2767;DHT22;1391;46.742;11.636;2022-08-19T06:37:01;17.90;99.90
2767;DHT22;1391;46.742;11.636;2022-08-19T06:39:30;17.90;99.90
2767;DHT22;1391;46.742;11.636;2022-08-19T06:42:00;17.90;99.90
2767;DHT22;1391;46.742;11.636;2022-08-19T06:44:34;17.60;99.90
2767;DHT22;1391;46.742;11.636;2022-08-19T06:47:04;17.80;99.90
2767;DHT22;1391;46.742;11.636;2022-08-19T06:49:37;17.70;99.90
2767;DHT22;1391;46.742;11.636;2022-08-19T06:52:05;17.60;99.90
2767;DHT22;1391;46.742;11.636;2022-08-19T06:54:32;18.20;99.90
2767;DHT22;1391;46.742;11.636;2022-08-19T06:57:01;18.30;99.90
2767;DHT22;1391;46.742;11.636;2022-08-19T06:59:30;18.50;99.90
2767;DHT22;1391;46.742;11.636;2022-08-19T07:02:01;18.90;99.90
2767;DHT22;1391;46.742;11.636;2022-08-19T07:04:32;18.80;99.90
2767;DHT22;1391;46.742;11.636;2022-08-19T07:07:04;19.00;99.90
2767;DHT22;1391;46.742;11.636;2022-08-19T07:09:33;19.00;99.90
2767;DHT22;1391;46.742;11.636;2022-08-19T07:12:04;18.90;96.60
2767;DHT22;1391;46.742;11.636;2022-08-19T07:14:34;19.10;96.20
2767;DHT22;1391;46.742;11.636;2022-08-19T07:17:04;18.80;95.40
2767;DHT22;1391;46.742;11.636;2022-08-19T07:19:34;19.00;95.00
2767;DHT22;1391;46.742;11.636;2022-08-19T07:22:06;19.20;95.30
2767;DHT22;1391;46.742;11.636;2022-08-19T07:24:34;19.60;95.30
2767;DHT22;1391;46.742;11.636;2022-08-19T07:27:04;19.50;97.20
2767;DHT22;1391;46.742;11.636;2022-08-19T07:29:34;20.20;96.30
2767;DHT22;1391;46.742;11.636;2022-08-19T07:32:03;20.30;92.00
2767;DHT22;1391;46.742;11.636;2022-08-19T07:34:31;21.10;91.50
2767;DHT22;1391;46.742;11.636;2022-08-19T07:37:03;20.90;91.30
2767;DHT22;1391;46.742;11.636;2022-08-19T07:39:33;21.20;86.40
2767;DHT22;1391;46.742;11.636;2022-08-19T07:42:05;20.90;85.10
2767;DHT22;1391;46.742;11.636;2022-08-19T07:44:36;21.00;89.00
2767;DHT22;1391;46.742;11.636;2022-08-19T07:47:05;21.00;85.40
2767;DHT22;1391;46.742;11.636;2022-08-19T07:49:32;21.50;82.30
2767;DHT22;1391;46.742;11.636;2022-08-19T07:52:02;21.50;81.20
2767;DHT22;1391;46.742;11.636;2022-08-19T07:54:34;21.60;82.20
2767;DHT22;1391;46.742;11.636;2022-08-19T07:57:03;21.80;76.30
2767;DHT22;1391;46.742;11.636;2022-08-19T07:59:31;21.50;76.80
2767;DHT22;1391;46.742;11.636;2022-08-19T08:01:58;21.80;76.70
2767;DHT22;1391;46.742;11.636;2022-08-19T08:04:26;21.70;75.70
2767;DHT22;1391;46.742;11.636;2022-08-19T08:07:12;21.70;72.50
2767;DHT22;1391;46.742;11.636;2022-08-19T08:09:57;22.30;70.00
2767;DHT22;1391;46.742;11.636;2022-08-19T08:12:27;22.60;70.20
2767;DHT22;1391;46.742;11.636;2022-08-19T08:14:59;22.20;70.70
2767;DHT22;1391;46.742;11.636;2022-08-19T08:17:30;22.60;70.30
2767;DHT22;1391;46.742;11.636;2022-08-19T08:19:58;22.40;66.00
2767;DHT22;1391;46.742;11.636;2022-08-19T08:22:27;22.70;74.30
2767;DHT22;1391;46.742;11.636;2022-08-19T08:25:14;23.40;68.00
2767;DHT22;1391;46.742;11.636;2022-08-19T08:27:44;23.30;67.40
2767;DHT22;1391;46.742;11.636;2022-08-19T08:30:15;24.20;69.50
2767;DHT22;1391;46.742;11.636;2022-08-19T08:32:43;23.50;60.20
2767;DHT22;1391;46.742;11.636;2022-08-19T08:35:13;23.40;64.10
2767;DHT22;1391;46.742;11.636;2022-08-19T08:37:43;23.20;61.30
2767;DHT22;1391;46.742;11.636;2022-08-19T08:40:18;23.20;63.60
2767;DHT22;1391;46.742;11.636;2022-08-19T08:42:53;23.60;67.00
2767;DHT22;1391;46.742;11.636;2022-08-19T08:45:27;23.40;61.80
2767;DHT22;1391;46.742;11.636;2022-08-19T08:47:57;23.00;63.00
2767;DHT22;1391;46.742;11.636;2022-08-19T08:50:33;23.40;68.50
2767;DHT22;1391;46.742;11.636;2022-08-19T08:53:06;22.50;65.00
2767;DHT22;1391;46.742;11.636;2022-08-19T08:55:34;23.40;65.90
2767;DHT22;1391;46.742;11.636;2022-08-19T08:58:04;24.20;64.60
2767;DHT22;1391;46.742;11.636;2022-08-19T09:00:35;24.20;62.20
2767;DHT22;1391;46.742;11.636;2022-08-19T09:03:16;24.20;61.90
2767;DHT22;1391;46.742;11.636;2022-08-19T09:05:55;23.50;59.30
2767;DHT22;1391;46.742;11.636;2022-08-19T09:08:33;24.10;60.70
2767;DHT22;1391;46.742;11.636;2022-08-19T09:11:10;23.50;60.20
2767;DHT22;1391;46.742;11.636;2022-08-19T09:13:47;24.00;54.50
2767;DHT22;1391;46.742;11.636;2022-08-19T09:16:20;23.50;54.20
2767;DHT22;1391;46.742;11.636;2022-08-19T09:18:54;24.40;70.60
2767;DHT22;1391;46.742;11.636;2022-08-19T09:21:24;24.30;60.80
2767;DHT22;1391;46.742;11.636;2022-08-19T09:23:54;24.20;52.30
2767;DHT22;1391;46.742;11.636;2022-08-19T09:26:23;24.20;50.90
2767;DHT22;1391;46.742;11.636;2022-08-19T09:28:52;23.40;54.60
2767;DHT22;1391;46.742;11.636;2022-08-19T09:31:21;23.40;52.80
2767;DHT22;1391;46.742;11.636;2022-08-19T09:33:50;23.20;53.40
2767;DHT22;1391;46.742;11.636;2022-08-19T09:36:21;23.30;51.50
2767;DHT22;1391;46.742;11.636;2022-08-19T09:38:50;23.40;49.80
2767;DHT22;1391;46.742;11.636;2022-08-19T09:41:20;23.40;54.10
2767;DHT22;1391;46.742;11.636;2022-08-19T09:43:52;23.50;60.10
2767;DHT22;1391;46.742;11.636;2022-08-19T09:46:22;24.10;61.20
2767;DHT22;1391;46.742;11.636;2022-08-19T09:48:51;24.20;55.10
2767;DHT22;1391;46.742;11.636;2022-08-19T09:51:22;24.20;54.60
2767;DHT22;1391;46.742;11.636;2022-08-19T09:53:52;24.50;54.30
2767;DHT22;1391;46.742;11.636;2022-08-19T09:56:21;24.00;55.20
2767;DHT22;1391;46.742;11.636;2022-08-19T09:58:49;24.10;55.60
2767;DHT22;1391;46.742;11.636;2022-08-19T10:01:18;24.20;58.10
2767;DHT22;1391;46.742;11.636;2022-08-19T10:03:48;23.50;56.60
2767;DHT22;1391;46.742;11.636;2022-08-19T10:06:18;24.10;56.10
2767;DHT22;1391;46.742;11.636;2022-08-19T10:08:45;23.90;55.10
2767;DHT22;1391;46.742;11.636;2022-08-19T10:11:13;24.20;54.50
2767;DHT22;1391;46.742;11.636;2022-08-19T10:13:44;24.30;55.20
2767;DHT22;1391;46.742;11.636;2022-08-19T10:16:13;25.30;54.50
2767;DHT22;1391;46.742;11.636;2022-08-19T10:18:43;25.10;48.10
2767;DHT22;1391;46.742;11.636;2022-08-19T10:21:12;25.10;52.90
2767;DHT22;1391;46.742;11.636;2022-08-19T10:23:42;25.30;49.20
2767;DHT22;1391;46.742;11.636;2022-08-19T10:26:14;24.90;46.60
2767;DHT22;1391;46.742;11.636;2022-08-19T10:28:44;24.90;48.10
2767;DHT22;1391;46.742;11.636;2022-08-19T10:31:17;24.40;44.90
2767;DHT22;1391;46.742;11.636;2022-08-19T10:33:46;24.30;47.70
2767;DHT22;1391;46.742;11.636;2022-08-19T10:36:16;24.90;46.20
2767;DHT22;1391;46.742;11.636;2022-08-19T10:38:45;25.10;48.00
2767;DHT22;1391;46.742;11.636;2022-08-19T10:41:16;25.10;44.80
2767;DHT22;1391;46.742;11.636;2022-08-19T10:43:46;25.00;47.00
2767;DHT22;1391;46.742;11.636;2022-08-19T10:46:15;25.00;45.60
2767;DHT22;1391;46.742;11.636;2022-08-19T10:48:43;25.10;48.60
2767;DHT22;1391;46.742;11.636;2022-08-19T10:51:11;25.40;42.40
2767;DHT22;1391;46.742;11.636;2022-08-19T10:53:57;25.20;42.80
2767;DHT22;1391;46.742;11.636;2022-08-19T10:56:26;25.00;43.30
2767;DHT22;1391;46.742;11.636;2022-08-19T10:59:13;25.10;43.60
2767;DHT22;1391;46.742;11.636;2022-08-19T11:01:42;25.00;49.70
2767;DHT22;1391;46.742;11.636;2022-08-19T11:04:10;25.00;51.30
2767;DHT22;1391;46.742;11.636;2022-08-19T11:06:39;25.00;54.10
2767;DHT22;1391;46.742;11.636;2022-08-19T11:09:07;25.20;47.40
2767;DHT22;1391;46.742;11.636;2022-08-19T11:11:35;24.90;50.30
2767;DHT22;1391;46.742;11.636;2022-08-19T11:14:05;24.80;51.00
2767;DHT22;1391;46.742;11.636;2022-08-19T11:16:33;24.20;49.80
2767;DHT22;1391;46.742;11.636;2022-08-19T11:19:01;24.90;51.10
2767;DHT22;1391;46.742;11.636;2022-08-19T11:21:30;24.90;51.10
2767;DHT22;1391;46.742;11.636;2022-08-19T11:24:02;24.20;51.20
2767;DHT22;1391;46.742;11.636;2022-08-19T11:26:32;24.40;49.40
2767;DHT22;1391;46.742;11.636;2022-08-19T11:29:00;24.30;50.60
2767;DHT22;1391;46.742;11.636;2022-08-19T11:31:30;24.20;51.90
2767;DHT22;1391;46.742;11.636;2022-08-19T11:34:02;24.10;56.30
2767;DHT22;1391;46.742;11.636;2022-08-19T11:36:32;24.10;52.90
2767;DHT22;1391;46.742;11.636;2022-08-19T11:39:00;24.20;56.00
2767;DHT22;1391;46.742;11.636;2022-08-19T11:41:28;24.10;57.50
2767;DHT22;1391;46.742;11.636;2022-08-19T11:43:56;24.20;51.40
2767;DHT22;1391;46.742;11.636;2022-08-19T11:46:25;24.20;52.40
2767;DHT22;1391;46.742;11.636;2022-08-19T11:48:55;24.20;56.50
2767;DHT22;1391;46.742;11.636;2022-08-19T11:51:24;24.10;54.90
2767;DHT22;1391;46.742;11.636;2022-08-19T11:53:53;24.00;57.40
2767;DHT22;1391;46.742;11.636;2022-08-19T11:56:21;24.00;54.50
2767;DHT22;1391;46.742;11.636;2022-08-19T11:58:49;24.00;55.80
2767;DHT22;1391;46.742;11.636;2022-08-19T12:01:19;23.50;49.30
2767;DHT22;1391;46.742;11.636;2022-08-19T12:03:49;24.10;51.80
2767;DHT22;1391;46.742;11.636;2022-08-19T12:06:24;24.00;54.50
2767;DHT22;1391;46.742;11.636;2022-08-19T12:08:54;24.00;53.30
2767;DHT22;1391;46.742;11.636;2022-08-19T12:11:23;24.30;51.40
2767;DHT22;1391;46.742;11.636;2022-08-19T12:13:50;24.20;49.80
2767;DHT22;1391;46.742;11.636;2022-08-19T12:16:21;24.30;50.60
2767;DHT22;1391;46.742;11.636;2022-08-19T12:18:50;24.30;50.50
2767;DHT22;1391;46.742;11.636;2022-08-19T12:21:19;24.30;58.40
2767;DHT22;1391;46.742;11.636;2022-08-19T12:23:50;24.70;53.40
2767;DHT22;1391;46.742;11.636;2022-08-19T12:26:18;24.30;51.60
2767;DHT22;1391;46.742;11.636;2022-08-19T12:28:45;24.30;53.40
2767;DHT22;1391;46.742;11.636;2022-08-19T12:31:14;24.90;51.60
2767;DHT22;1391;46.742;11.636;2022-08-19T12:33:42;25.00;48.00
2767;DHT22;1391;46.742;11.636;2022-08-19T12:36:11;25.00;48.60
2767;DHT22;1391;46.742;11.636;2022-08-19T12:38:40;25.10;47.40
2767;DHT22;1391;46.742;11.636;2022-08-19T12:41:12;24.90;47.40
2767;DHT22;1391;46.742;11.636;2022-08-19T12:43:40;25.10;49.30
2767;DHT22;1391;46.742;11.636;2022-08-19T12:46:08;25.20;45.00
2767;DHT22;1391;46.742;11.636;2022-08-19T12:48:36;26.00;50.10
2767;DHT22;1391;46.742;11.636;2022-08-19T12:51:07;26.20;50.90
2767;DHT22;1391;46.742;11.636;2022-08-19T12:53:35;26.40;42.80
2767;DHT22;1391;46.742;11.636;2022-08-19T12:56:03;25.90;40.00
2767;DHT22;1391;46.742;11.636;2022-08-19T12:58:32;25.90;39.50
2767;DHT22;1391;46.742;11.636;2022-08-19T13:01:06;26.10;51.00
2767;DHT22;1391;46.742;11.636;2022-08-19T13:03:33;26.10;44.40
2767;DHT22;1391;46.742;11.636;2022-08-19T13:06:02;26.00;43.50
2767;DHT22;1391;46.742;11.636;2022-08-19T13:08:29;26.10;39.20
2767;DHT22;1391;46.742;11.636;2022-08-19T13:10:57;26.10;40.70
2767;DHT22;1391;46.742;11.636;2022-08-19T13:13:25;25.90;40.50
2767;DHT22;1391;46.742;11.636;2022-08-19T13:16:01;26.10;38.60
2767;DHT22;1391;46.742;11.636;2022-08-19T13:18:29;26.00;39.50
2767;DHT22;1391;46.742;11.636;2022-08-19T13:20:57;26.20;39.40
2767;DHT22;1391;46.742;11.636;2022-08-19T13:23:28;26.20;37.40
2767;DHT22;1391;46.742;11.636;2022-08-19T13:25:57;26.30;37.20
2767;DHT22;1391;46.742;11.636;2022-08-19T13:28:24;27.00;39.80
2767;DHT22;1391;46.742;11.636;2022-08-19T13:30:53;27.10;40.00
2767;DHT22;1391;46.742;11.636;2022-08-19T13:33:37;26.40;35.40
2767;DHT22;1391;46.742;11.636;2022-08-19T13:36:05;26.70;37.60
2767;DHT22;1391;46.742;11.636;2022-08-19T13:38:33;26.20;39.70
2767;DHT22;1391;46.742;11.636;2022-08-19T13:41:05;26.20;40.50
2767;DHT22;1391;46.742;11.636;2022-08-19T13:43:33;26.20;39.00
2767;DHT22;1391;46.742;11.636;2022-08-19T13:46:08;26.10;41.30
2767;DHT22;1391;46.742;11.636;2022-08-19T13:48:38;26.00;40.70
2767;DHT22;1391;46.742;11.636;2022-08-19T13:51:07;26.00;47.50
2767;DHT22;1391;46.742;11.636;2022-08-19T13:53:35;26.00;37.50
2767;DHT22;1391;46.742;11.636;2022-08-19T13:56:05;26.00;41.00
2767;DHT22;1391;46.742;11.636;2022-08-19T13:58:33;25.90;46.50
2767;DHT22;1391;46.742;11.636;2022-08-19T14:01:02;25.90;42.80
2767;DHT22;1391;46.742;11.636;2022-08-19T14:03:31;25.30;45.10
2767;DHT22;1391;46.742;11.636;2022-08-19T14:05:58;25.20;47.40
2767;DHT22;1391;46.742;11.636;2022-08-19T14:08:26;25.80;42.40
2767;DHT22;1391;46.742;11.636;2022-08-19T14:10:55;25.80;44.40
2767;DHT22;1391;46.742;11.636;2022-08-19T14:13:25;25.30;44.10
2767;DHT22;1391;46.742;11.636;2022-08-19T14:15:52;25.80;39.80
2767;DHT22;1391;46.742;11.636;2022-08-19T14:18:21;25.30;44.60
2767;DHT22;1391;46.742;11.636;2022-08-19T14:20:50;25.20;42.10
2767;DHT22;1391;46.742;11.636;2022-08-19T14:23:17;25.20;40.90
2767;DHT22;1391;46.742;11.636;2022-08-19T14:25:45;25.10;42.60
2767;DHT22;1391;46.742;11.636;2022-08-19T14:28:13;25.10;42.10
2767;DHT22;1391;46.742;11.636;2022-08-19T14:30:40;25.10;41.40
2767;DHT22;1391;46.742;11.636;2022-08-19T14:33:07;25.10;44.10
2767;DHT22;1391;46.742;11.636;2022-08-19T14:35:36;25.30;44.60
2767;DHT22;1391;46.742;11.636;2022-08-19T14:38:05;25.00;43.30
2767;DHT22;1391;46.742;11.636;2022-08-19T14:40:33;25.00;42.30
2767;DHT22;1391;46.742;11.636;2022-08-19T14:43:02;25.10;43.50
2767;DHT22;1391;46.742;11.636;2022-08-19T14:45:32;25.10;40.90
2767;DHT22;1391;46.742;11.636;2022-08-19T14:48:02;25.00;41.60
2767;DHT22;1391;46.742;11.636;2022-08-19T14:50:29;24.90;41.80
2767;DHT22;1391;46.742;11.636;2022-08-19T14:53:04;25.10;40.40
2767;DHT22;1391;46.742;11.636;2022-08-19T14:55:33;24.90;41.80
2767;DHT22;1391;46.742;11.636;2022-08-19T14:58:01;25.00;42.90
2767;DHT22;1391;46.742;11.636;2022-08-19T15:00:28;24.90;41.70
2767;DHT22;1391;46.742;11.636;2022-08-19T15:02:56;25.00;42.90
2767;DHT22;1391;46.742;11.636;2022-08-19T15:05:24;25.00;45.20
2767;DHT22;1391;46.742;11.636;2022-08-19T15:07:52;25.00;44.70
2767;DHT22;1391;46.742;11.636;2022-08-19T15:10:23;25.20;43.00
2767;DHT22;1391;46.742;11.636;2022-08-19T15:12:51;24.90;43.60
2767;DHT22;1391;46.742;11.636;2022-08-19T15:15:19;24.90;41.10
2767;DHT22;1391;46.742;11.636;2022-08-19T15:17:48;24.90;38.00
2767;DHT22;1391;46.742;11.636;2022-08-19T15:20:17;25.00;37.90
2767;DHT22;1391;46.742;11.636;2022-08-19T15:22:46;24.90;39.20
2767;DHT22;1391;46.742;11.636;2022-08-19T15:25:16;24.90;36.60
2767;DHT22;1391;46.742;11.636;2022-08-19T15:27:48;24.70;37.50
2767;DHT22;1391;46.742;11.636;2022-08-19T15:30:20;25.00;38.40
2767;DHT22;1391;46.742;11.636;2022-08-19T15:32:49;24.20;37.20
2767;DHT22;1391;46.742;11.636;2022-08-19T15:35:18;24.40;37.80
2767;DHT22;1391;46.742;11.636;2022-08-19T15:37:48;24.20;38.80
2767;DHT22;1391;46.742;11.636;2022-08-19T15:40:16;24.20;40.10
2767;DHT22;1391;46.742;11.636;2022-08-19T15:42:45;24.00;38.00
2767;DHT22;1391;46.742;11.636;2022-08-19T15:45:16;24.20;36.10
2767;DHT22;1391;46.742;11.636;2022-08-19T15:47:45;24.20;36.50
2767;DHT22;1391;46.742;11.636;2022-08-19T15:50:14;24.20;38.60
2767;DHT22;1391;46.742;11.636;2022-08-19T15:52:47;24.20;37.80
2767;DHT22;1391;46.742;11.636;2022-08-19T15:55:16;24.10;37.90
2767;DHT22;1391;46.742;11.636;2022-08-19T15:57:44;24.30;37.40
2767;DHT22;1391;46.742;11.636;2022-08-19T16:00:30;24.00;35.70